createdAt,value
2019-03-11T00:00:12.165Z,17.27
2019-03-11T00:05:16.035Z,13.73
2019-03-11T00:10:18.228Z,16.33
2019-03-11T00:15:20.440Z,11.63
2019-03-11T00:20:22.590Z,12.17
2019-03-11T00:25:24.988Z,12.83
2019-03-11T00:30:27.201Z,12.13
2019-03-11T00:35:29.477Z,11.20
2019-03-11T00:40:32.425Z,12.47
2019-03-11T00:45:34.981Z,15.63
2019-03-11T00:50:37.756Z,13.03
2019-03-11T00:55:41.416Z,10.03
2019-03-11T01:00:43.770Z,11.50
2019-03-11T01:05:46.580Z,12.90
2019-03-11T01:10:48.516Z,12.37
2019-03-11T01:15:50.880Z,15.73
2019-03-11T01:20:54.037Z,14.03
2019-03-11T01:25:55.993Z,12.73
2019-03-11T01:30:57.915Z,16.70
2019-03-11T01:36:00.404Z,9.43
2019-03-11T01:41:03.818Z,9.83
2019-03-11T01:46:06.304Z,11.63
2019-03-11T01:51:08.735Z,11.40
2019-03-11T01:56:12.341Z,10.87
2019-03-11T02:01:14.317Z,11.60
2019-03-11T02:06:16.972Z,11.87
2019-03-11T02:11:19.468Z,11.53
2019-03-11T02:16:21.666Z,12.23
2019-03-11T02:21:24.244Z,9.47
2019-03-11T02:26:26.093Z,7.77
2019-03-11T02:31:28.534Z,7.60
2019-03-11T02:36:30.904Z,6.20
2019-03-11T02:41:32.825Z,6.70
2019-03-11T02:46:34.771Z,4.67
2019-03-11T02:51:37.452Z,4.87
2019-03-11T02:56:39.970Z,4.83
2019-03-11T03:02:10.837Z,3.70
2019-03-11T03:07:13.141Z,4.63
2019-03-11T03:12:15.157Z,4.27
2019-03-11T03:17:17.661Z,7.07
2019-03-11T03:22:20.039Z,5.37
2019-03-11T03:27:22.139Z,4.73
2019-03-11T03:32:24.417Z,4.03
2019-03-11T03:37:26.373Z,4.67
2019-03-11T03:42:28.332Z,3.93
2019-03-11T03:47:30.593Z,3.83
2019-03-11T03:52:32.837Z,5.77
2019-03-11T03:57:35.725Z,3.83
2019-03-11T04:02:37.970Z,4.23
2019-03-11T04:07:39.907Z,5.63
2019-03-11T04:12:41.869Z,6.17
2019-03-11T04:17:44.199Z,6.47
2019-03-11T04:22:46.120Z,7.67
2019-03-11T04:27:48.660Z,6.90
2019-03-11T04:32:50.795Z,8.10
2019-03-11T04:37:52.869Z,8.83
2019-03-11T04:42:55.198Z,8.73
2019-03-11T04:47:57.647Z,9.77
2019-03-11T04:53:00.080Z,10.70
2019-03-11T04:58:02.688Z,11.13
2019-03-11T05:03:05.134Z,11.57
2019-03-11T05:08:07.079Z,11.67
2019-03-11T05:13:09.060Z,11.60
2019-03-11T05:18:11.018Z,10.13
2019-03-11T05:23:13.233Z,9.03
2019-03-11T05:28:15.160Z,12.33
2019-03-11T05:33:18.401Z,10.60
2019-03-11T05:38:21.506Z,13.57
2019-03-11T05:43:24.695Z,15.50
2019-03-11T05:48:26.633Z,12.10
2019-03-11T05:53:29.071Z,9.80
2019-03-11T05:58:31.602Z,11.43
2019-03-11T06:03:33.665Z,12.20
2019-03-11T06:08:35.618Z,16.07
2019-03-11T06:13:37.549Z,8.80
2019-03-11T06:18:45.142Z,12.07
2019-03-11T06:23:47.041Z,10.57
2019-03-11T06:28:49.187Z,13.97
2019-03-11T06:33:51.081Z,13.27
2019-03-11T06:38:53.020Z,14.43
2019-03-11T06:43:54.992Z,11.73
2019-03-11T06:48:57.818Z,13.57
2019-03-11T06:54:00.068Z,16.50
2019-03-11T06:59:02.520Z,13.13
2019-03-11T07:04:04.738Z,14.67
2019-03-11T07:09:07.640Z,15.40
2019-03-11T07:14:10.587Z,11.93
2019-03-11T07:19:13.776Z,12.17
2019-03-11T07:24:17.749Z,12.87
2019-03-11T07:29:19.880Z,13.17
2019-03-11T07:34:21.804Z,19.47
2019-03-11T07:39:23.688Z,10.93
2019-03-11T07:44:26.077Z,8.43
2019-03-11T07:49:28.119Z,9.93
2019-03-11T07:54:35.788Z,15.57
2019-03-11T07:59:34.365Z,9.97
2019-03-11T08:04:36.635Z,13.17
2019-03-11T08:09:39.117Z,13.23
2019-03-11T08:14:41.448Z,11.03
2019-03-11T08:19:44.321Z,9.30
2019-03-11T08:24:46.805Z,12.43
2019-03-11T08:29:49.319Z,7.80
2019-03-11T08:34:51.419Z,11.57
2019-03-11T08:39:53.374Z,10.23
2019-03-11T08:44:55.351Z,8.47
2019-03-11T08:49:57.637Z,11.60
2019-03-11T08:55:00.013Z,10.70
2019-03-11T09:00:02.638Z,9.23
2019-03-11T09:05:08.323Z,9.97
2019-03-11T09:10:11.730Z,8.27
2019-03-11T09:15:14.997Z,8.50
2019-03-11T09:20:17.593Z,10.33
2019-03-11T09:25:20.061Z,14.13
2019-03-11T09:30:22.111Z,7.67
2019-03-11T09:35:24.943Z,9.83
2019-03-11T09:40:27.749Z,5.53
2019-03-11T09:45:30.275Z,7.03
2019-03-11T09:50:35.135Z,8.50
2019-03-11T09:55:37.631Z,9.13
2019-03-11T10:00:39.756Z,9.20
2019-03-11T10:05:41.956Z,9.00
2019-03-11T10:10:44.164Z,10.43
2019-03-11T10:15:47.024Z,10.37
2019-03-11T10:20:49.537Z,11.00
2019-03-11T10:25:51.804Z,7.90
2019-03-11T10:30:54.544Z,9.70
2019-03-11T10:35:56.387Z,7.53
2019-03-11T10:40:58.493Z,6.67
2019-03-11T10:46:00.770Z,10.43
2019-03-11T10:51:03.066Z,9.90
2019-03-11T10:56:05.133Z,11.37
2019-03-11T11:01:09.617Z,8.20
2019-03-11T11:06:12.624Z,7.57
2019-03-11T11:11:14.749Z,8.67
2019-03-11T11:16:16.853Z,7.80
2019-03-11T11:21:19.420Z,10.00
2019-03-11T11:26:21.520Z,8.77
2019-03-11T11:31:23.506Z,5.97
2019-03-11T11:36:25.461Z,8.03
2019-03-11T11:41:27.766Z,10.50
2019-03-11T11:46:29.729Z,13.50
2019-03-11T11:51:32.324Z,7.77
2019-03-11T11:56:34.232Z,6.33
2019-03-11T12:01:36.233Z,5.67
2019-03-11T12:06:38.449Z,9.23
2019-03-11T12:11:40.426Z,8.90
2019-03-11T12:16:42.689Z,9.63
2019-03-11T12:21:45.011Z,6.80
2019-03-11T12:26:47.733Z,10.73
2019-03-11T12:31:49.716Z,11.67
2019-03-11T12:36:51.590Z,10.47
2019-03-11T12:41:53.740Z,6.97
2019-03-11T12:46:56.547Z,10.40
2019-03-11T12:51:59.069Z,6.53
2019-03-11T12:57:01.869Z,6.70
2019-03-11T13:02:03.796Z,5.23
2019-03-11T13:07:05.931Z,4.43
2019-03-11T13:12:09.035Z,5.67
2019-03-11T13:17:11.341Z,5.10
2019-03-11T13:22:13.286Z,3.97
2019-03-11T13:27:15.137Z,6.00
2019-03-11T13:32:17.165Z,7.50
2019-03-11T13:37:19.150Z,3.63
2019-03-11T13:42:21.111Z,5.07
2019-03-11T13:47:23.132Z,3.47
2019-03-11T13:52:25.256Z,4.43
2019-03-11T13:57:27.440Z,4.90
2019-03-11T14:02:31.205Z,4.57
2019-03-11T14:07:33.144Z,4.00
2019-03-11T14:12:35.419Z,3.40
2019-03-11T14:17:37.221Z,5.40
2019-03-11T14:22:39.289Z,4.70
2019-03-11T14:27:41.476Z,6.03
2019-03-11T14:32:44.196Z,4.20
2019-03-11T14:37:46.369Z,5.03
2019-03-11T14:42:48.278Z,4.67
2019-03-11T14:47:50.201Z,7.40
2019-03-11T14:52:52.137Z,3.57
2019-03-11T14:57:54.292Z,3.47
2019-03-11T15:02:56.884Z,4.73
2019-03-11T15:07:58.854Z,3.57
2019-03-11T15:13:01.181Z,4.50
2019-03-11T15:18:04.549Z,6.57
2019-03-11T15:23:18.959Z,2.40
2019-03-11T15:28:10.153Z,4.70
2019-03-11T15:33:11.971Z,3.67
2019-03-11T15:38:14.042Z,5.47
2019-03-11T15:43:17.708Z,3.50
2019-03-11T15:48:19.736Z,3.07
2019-03-11T15:53:22.479Z,3.63
2019-03-11T15:58:24.312Z,4.03
2019-03-11T16:03:35.994Z,3.57
2019-03-11T16:08:30.541Z,5.40
2019-03-11T16:13:32.489Z,4.70
2019-03-11T16:18:34.757Z,3.40
2019-03-11T16:23:36.830Z,4.60
2019-03-11T16:28:47.814Z,5.00
2019-03-11T16:33:43.473Z,5.03
2019-03-11T16:38:45.749Z,8.93
2019-03-11T16:43:47.936Z,5.80
2019-03-11T16:48:50.376Z,4.40
2019-03-11T16:53:52.355Z,3.43
2019-03-11T16:58:54.429Z,5.27
2019-03-11T17:03:56.381Z,6.30
2019-03-11T17:08:58.949Z,5.17
2019-03-11T17:14:01.263Z,7.17
2019-03-11T17:19:03.955Z,4.60
2019-03-11T17:24:05.897Z,3.73
2019-03-11T17:29:07.827Z,3.37
2019-03-11T17:34:09.794Z,5.03
2019-03-11T17:39:11.739Z,3.57
2019-03-11T17:44:14.224Z,3.83
2019-03-11T17:49:16.283Z,3.30
2019-03-11T17:54:18.898Z,3.27
2019-03-11T17:59:21.324Z,2.70
2019-03-11T18:04:24.192Z,3.17
2019-03-11T18:09:27.541Z,3.73
2019-03-11T18:14:30.413Z,3.57
2019-03-11T18:19:32.953Z,8.00
2019-03-11T18:24:35.231Z,5.57
2019-03-11T18:29:37.995Z,5.60
2019-03-11T18:34:39.828Z,7.00
2019-03-11T18:39:41.656Z,8.63
2019-03-11T18:44:44.181Z,6.40
2019-03-11T18:49:46.213Z,7.37
2019-03-11T18:54:48.370Z,6.37
2019-03-11T18:59:50.552Z,4.42
2019-03-11T19:04:53.132Z,5.77
2019-03-11T19:09:55.405Z,10.43
2019-03-11T19:14:59.500Z,5.10
2019-03-11T19:20:04.420Z,3.97
2019-03-11T19:25:10.798Z,4.27
2019-03-11T19:30:15.219Z,3.60
2019-03-11T19:35:20.368Z,4.57
2019-03-11T19:40:25.729Z,4.53
2019-03-11T19:45:31.812Z,5.80
2019-03-11T19:50:34.817Z,6.07
2019-03-11T19:55:36.944Z,3.80
2019-03-11T20:00:39.564Z,4.13
2019-03-11T20:05:45.042Z,3.17
2019-03-11T20:10:47.351Z,4.73
2019-03-11T20:15:53.838Z,7.13
2019-03-11T20:20:55.001Z,6.17
2019-03-11T20:25:57.637Z,4.77
2019-03-11T20:31:00.251Z,8.20
2019-03-11T20:36:02.872Z,4.43
2019-03-11T20:41:05.663Z,8.27
2019-03-11T20:46:08.256Z,4.50
2019-03-11T20:51:13.505Z,4.40
2019-03-11T20:56:22.915Z,5.03
2019-03-11T21:01:25.616Z,3.83
2019-03-11T21:06:28.156Z,4.43
2019-03-11T21:11:30.468Z,6.27
2019-03-11T21:16:32.747Z,6.93
2019-03-11T21:21:35.057Z,12.87
2019-03-11T21:26:38.141Z,6.63
2019-03-11T21:31:42.056Z,6.97
2019-03-11T21:36:44.842Z,5.97
2019-03-11T21:41:47.032Z,6.87
2019-03-11T21:46:49.422Z,8.73
2019-03-11T21:51:51.591Z,10.60
2019-03-11T21:56:53.602Z,7.63
2019-03-11T22:01:56.361Z,6.57
2019-03-11T22:06:58.752Z,6.73
2019-03-11T22:12:00.760Z,7.97
2019-03-11T22:17:02.653Z,7.80
2019-03-11T22:22:04.868Z,8.27
2019-03-11T22:27:07.468Z,7.50
2019-03-11T22:32:09.977Z,9.77
2019-03-11T22:37:12.551Z,10.37
2019-03-11T22:42:14.654Z,13.60
2019-03-11T22:47:16.589Z,11.40
2019-03-11T22:52:20.048Z,9.47
2019-03-11T22:57:22.337Z,9.80
2019-03-11T23:02:24.529Z,10.13
2019-03-11T23:07:26.781Z,10.53
2019-03-11T23:12:29.757Z,13.87
2019-03-11T23:17:31.715Z,12.87
2019-03-11T23:22:33.928Z,14.20
2019-03-11T23:27:35.761Z,17.60
2019-03-11T23:32:37.929Z,15.23
2019-03-11T23:37:40.198Z,11.97
2019-03-11T23:42:43.917Z,10.97
2019-03-11T23:47:45.795Z,12.53
2019-03-11T23:52:48.175Z,18.13
2019-03-11T23:57:50.684Z,14.60
